Time;durP1;ratioP1;P1;durP2;ratioP2;P2;SDS_P1;SDS_P2;PMS_P1;PMS_P2;Temp;Humidity;BMP_temperature;BMP_pressure;BME280_temperature;BME280_humidity;BME280_pressure;Samples;Min_cycle;Max_cycle;Signal;HPM_P1;HPM_P2
2023/10/03 00:00:22;;;;;;;;;;;29.90;66.10;;;;;;5114294;28;19955;-70
2023/10/03 00:02:55;;;;;;;;;;;30.10;65.70;;;;;;5114203;28;20384;-72
2023/10/03 00:05:22;;;;;;;;;;;30.10;65.20;;;;;;5114209;28;20265;-70
2023/10/03 00:07:49;;;;;;;;;;;30.30;65.60;;;;;;5114408;28;19958;-72
2023/10/03 00:10:17;;;;;;;;;;;30.40;64.30;;;;;;5114364;27;20440;-71
2023/10/03 00:12:47;;;;;;;;;;;30.50;63.90;;;;;;5114321;28;20391;-69
2023/10/03 00:15:18;;;;;;;;;;;30.60;63.90;;;;;;5114233;28;20360;-69
2023/10/03 00:17:45;;;;;;;;;;;30.90;63.40;;;;;;5114327;28;20068;-70
2023/10/03 00:20:12;;;;;;;;;;;31.00;63.30;;;;;;5114294;27;19907;-70
2023/10/03 00:22:40;;;;;;;;;;;31.10;62.50;;;;;;5114205;28;20382;-70
2023/10/03 00:25:09;;;;;;;;;;;31.10;62.50;;;;;;5114103;28;20010;-68
2023/10/03 00:27:37;;;;;;;;;;;31.10;62.80;;;;;;5112575;28;19915;-72
2023/10/03 00:30:06;;;;;;;;;;;31.30;61.50;;;;;;5113620;28;19926;-72
2023/10/03 00:32:32;;;;;;;;;;;31.20;61.50;;;;;;5114004;28;20360;-71
2023/10/03 00:34:59;;;;;;;;;;;31.30;62.10;;;;;;5113821;28;19907;-72
2023/10/03 00:37:26;;;;;;;;;;;31.50;61.80;;;;;;5113349;28;19915;-72
2023/10/03 00:39:54;;;;;;;;;;;31.70;61.40;;;;;;5113695;27;20277;-72
2023/10/03 00:42:20;;;;;;;;;;;31.90;61.40;;;;;;5113763;28;20365;-72
2023/10/03 00:44:47;;;;;;;;;;;32.00;60.40;;;;;;5111387;28;19907;-71
2023/10/03 00:47:14;;;;;;;;;;;32.00;60.20;;;;;;5093357;28;20335;-70
2023/10/03 00:49:46;;;;;;;;;;;32.10;59.30;;;;;;5091534;28;19920;-70
2023/10/03 00:52:12;;;;;;;;;;;32.20;59.50;;;;;;5091332;28;19986;-70
2023/10/03 00:54:40;;;;;;;;;;;32.30;59.20;;;;;;5092451;28;20360;-72
2023/10/03 00:57:08;;;;;;;;;;;32.50;59.70;;;;;;5093217;28;19912;-70
2023/10/03 00:59:35;;;;;;;;;;;32.60;59.70;;;;;;5093004;28;19908;-71
2023/10/03 01:02:06;;;;;;;;;;;32.80;60.00;;;;;;5093094;28;19908;-72
2023/10/03 01:04:34;;;;;;;;;;;32.90;58.80;;;;;;5093214;28;19912;-71
2023/10/03 01:07:02;;;;;;;;;;;33.00;58.40;;;;;;5093359;28;20058;-71
2023/10/03 01:09:31;;;;;;;;;;;33.10;57.90;;;;;;5093093;28;19909;-70
2023/10/03 01:11:58;;;;;;;;;;;33.20;58.20;;;;;;5092531;28;19927;-70
2023/10/03 01:14:26;;;;;;;;;;;33.30;58.10;;;;;;5092622;28;19961;-69
2023/10/03 01:16:53;;;;;;;;;;;33.40;57.60;;;;;;5093008;28;19908;-71
2023/10/03 01:19:21;;;;;;;;;;;33.50;58.30;;;;;;5092874;28;19919;-69
2023/10/03 01:21:51;;;;;;;;;;;33.70;57.10;;;;;;5092967;28;19919;-69
2023/10/03 01:24:21;;;;;;;;;;;33.80;57.20;;;;;;5093160;28;19915;-68
2023/10/03 01:26:48;;;;;;;;;;;33.80;57.00;;;;;;5093101;28;20369;-67
2023/10/03 01:29:15;;;;;;;;;;;33.70;57.40;;;;;;5092909;28;20376;-69
2023/10/03 01:31:42;;;;;;;;;;;33.90;56.70;;;;;;5092675;28;19943;-69
2023/10/03 01:34:09;;;;;;;;;;;33.90;56.50;;;;;;5092734;28;20361;-69
2023/10/03 01:36:36;;;;;;;;;;;33.90;56.60;;;;;;5092897;28;19947;-70
2023/10/03 01:39:03;;;;;;;;;;;34.00;57.10;;;;;;5092947;28;19977;-69
2023/10/03 01:41:30;;;;;;;;;;;34.20;56.60;;;;;;5092646;28;19908;-69
2023/10/03 01:43:56;;;;;;;;;;;34.20;57.00;;;;;;5092684;28;19912;-68
2023/10/03 01:46:26;;;;;;;;;;;34.40;56.50;;;;;;5091576;28;19909;-69
2023/10/03 01:48:53;;;;;;;;;;;34.70;56.60;;;;;;5092735;28;20381;-69
2023/10/03 01:51:21;;;;;;;;;;;34.90;56.60;;;;;;5092806;28;19920;-70
2023/10/03 01:53:47;;;;;;;;;;;35.00;56.10;;;;;;5092271;28;19915;-69
2023/10/03 01:56:14;;;;;;;;;;;35.20;55.90;;;;;;5094316;28;19908;-69
2023/10/03 01:58:41;;;;;;;;;;;35.10;55.30;;;;;;5096698;28;20006;-71
2023/10/03 02:01:07;;;;;;;;;;;35.20;55.70;;;;;;5096531;28;19908;-69
2023/10/03 02:03:34;;;;;;;;;;;35.40;55.40;;;;;;5096491;28;19931;-69
2023/10/03 02:06:03;;;;;;;;;;;35.40;54.60;;;;;;5096139;28;20313;-69
2023/10/03 02:08:33;;;;;;;;;;;35.50;54.70;;;;;;5096575;28;19915;-69
2023/10/03 02:11:00;;;;;;;;;;;35.60;53.70;;;;;;5096752;28;19930;-71
2023/10/03 02:13:27;;;;;;;;;;;35.90;55.00;;;;;;5096435;28;19912;-70
2023/10/03 02:15:54;;;;;;;;;;;36.00;53.40;;;;;;5096345;28;19915;-71
2023/10/03 02:18:21;;;;;;;;;;;36.10;50.80;;;;;;5096475;28;19912;-71
2023/10/03 02:20:50;;;;;;;;;;;36.10;51.10;;;;;;5096350;28;19912;-69
2023/10/03 02:23:22;;;;;;;;;;;36.20;50.50;;;;;;5096297;28;19908;-70
2023/10/03 02:25:50;;;;;;;;;;;36.40;50.10;;;;;;5095897;28;19912;-68
2023/10/03 02:28:17;;;;;;;;;;;36.50;49.70;;;;;;5094994;28;20324;-70
2023/10/03 02:30:48;;;;;;;;;;;36.70;50.10;;;;;;5095985;28;19969;-71
2023/10/03 02:33:18;;;;;;;;;;;37.10;49.20;;;;;;5096023;28;20396;-70
2023/10/03 02:35:50;;;;;;;;;;;37.30;49.20;;;;;;5094812;28;20376;-69
2023/10/03 02:38:53;;;;;;;;;;;37.80;47.60;;;;;;5095823;28;19908;-71
2023/10/03 02:41:13;;;;;;;;;;;38.00;47.60;;;;;;5094549;28;19914;-68
2023/10/03 02:43:43;;;;;;;;;;;38.70;47.20;;;;;;5096062;28;19919;-68
2023/10/03 02:46:12;;;;;;;;;;;39.70;47.10;;;;;;5096060;28;19927;-68
2023/10/03 02:48:39;;;;;;;;;;;40.50;46.60;;;;;;5095427;28;19965;-68
2023/10/03 02:51:07;;;;;;;;;;;41.00;46.00;;;;;;5095398;28;20434;-68
2023/10/03 02:53:35;;;;;;;;;;;41.80;45.00;;;;;;5095763;28;19908;-69
2023/10/03 02:56:04;;;;;;;;;;;41.70;43.80;;;;;;5095703;28;19915;-67
2023/10/03 02:58:30;;;;;;;;;;;41.90;43.70;;;;;;5095462;28;19908;-70
2023/10/03 03:00:57;;;;;;;;;;;41.80;43.50;;;;;;5095519;28;19909;-70
2023/10/03 03:03:29;;;;;;;;;;;42.90;42.90;;;;;;5095607;28;20372;-69
2023/10/03 03:05:59;;;;;;;;;;;42.80;42.60;;;;;;5095698;28;19969;-68
2023/10/03 03:08:28;;;;;;;;;;;42.50;42.00;;;;;;5095514;28;19908;-69
2023/10/03 03:10:57;;;;;;;;;;;42.40;42.30;;;;;;5095170;28;19916;-71
2023/10/03 03:13:25;;;;;;;;;;;43.10;41.30;;;;;;5095116;28;20409;-71
2023/10/03 03:16:03;;;;;;;;;;;43.30;41.90;;;;;;5095148;28;19908;-69
2023/10/03 03:18:31;;;;;;;;;;;43.70;41.70;;;;;;5095127;28;19914;-67
2023/10/03 03:20:58;;;;;;;;;;;43.40;41.10;;;;;;5095105;28;19915;-69
2023/10/03 03:23:29;;;;;;;;;;;43.00;41.50;;;;;;5095018;28;19961;-69
2023/10/03 03:26:09;;;;;;;;;;;42.70;41.40;;;;;;5094829;28;19909;-69
2023/10/03 03:28:37;;;;;;;;;;;42.40;41.80;;;;;;5094815;28;19951;-67
2023/10/03 03:31:09;;;;;;;;;;;42.50;41.70;;;;;;5094677;28;20006;-66
2023/10/03 03:33:36;;;;;;;;;;;43.20;41.80;;;;;;5094968;28;19908;-68
2023/10/03 03:36:03;;;;;;;;;;;43.60;41.80;;;;;;5094865;28;19922;-67
2023/10/03 03:38:31;;;;;;;;;;;44.60;42.90;;;;;;5094937;28;19912;-69
2023/10/03 03:41:01;;;;;;;;;;;44.90;41.60;;;;;;5094761;28;19947;-69
2023/10/03 03:43:28;;;;;;;;;;;45.30;40.90;;;;;;5094919;28;19953;-67
2023/10/03 03:45:54;;;;;;;;;;;44.90;40.80;;;;;;5094749;28;20332;-68
2023/10/03 03:48:22;;;;;;;;;;;44.60;40.40;;;;;;5094576;28;20363;-68
2023/10/03 03:50:50;;;;;;;;;;;44.70;40.70;;;;;;5094196;28;20330;-67
2023/10/03 03:53:18;;;;;;;;;;;44.30;40.40;;;;;;5094317;28;19915;-68
2023/10/03 03:55:46;;;;;;;;;;;44.00;41.50;;;;;;5094426;28;19915;-68
2023/10/03 03:58:17;;;;;;;;;;;44.30;40.70;;;;;;5094430;28;19955;-68
2023/10/03 04:00:50;;;;;;;;;;;43.90;40.60;;;;;;5094327;28;19915;-69
2023/10/03 04:03:18;;;;;;;;;;;44.40;40.50;;;;;;5094349;28;19993;-70
2023/10/03 04:05:49;;;;;;;;;;;44.70;41.80;;;;;;5094266;28;20375;-69
2023/10/03 04:08:18;;;;;;;;;;;45.00;40.40;;;;;;5092910;28;19912;-70
2023/10/03 04:10:45;;;;;;;;;;;45.40;40.40;;;;;;5094100;28;20030;-70
2023/10/03 04:13:15;;;;;;;;;;;45.80;40.20;;;;;;5094181;28;19915;-69
2023/10/03 04:15:44;;;;;;;;;;;45.70;40.50;;;;;;5093926;28;19908;-70
2023/10/03 04:18:12;;;;;;;;;;;45.60;40.10;;;;;;5093637;28;19915;-68
2023/10/03 04:20:40;;;;;;;;;;;45.30;40.70;;;;;;5093602;28;19962;-69
2023/10/03 04:23:08;;;;;;;;;;;45.30;40.80;;;;;;5093837;28;19909;-71
2023/10/03 04:25:37;;;;;;;;;;;45.60;40.30;;;;;;5093586;28;19915;-69
2023/10/03 04:28:05;;;;;;;;;;;45.40;40.30;;;;;;5093952;28;20333;-68
2023/10/03 04:30:31;;;;;;;;;;;45.30;41.20;;;;;;5093869;28;19916;-68
2023/10/03 04:32:58;;;;;;;;;;;44.80;39.80;;;;;;5093738;28;19914;-67
2023/10/03 04:35:25;;;;;;;;;;;44.50;41.10;;;;;;5093889;28;19919;-70
2023/10/03 04:37:52;;;;;;;;;;;44.60;40.20;;;;;;5093920;28;19916;-69
2023/10/03 04:40:23;;;;;;;;;;;44.90;40.80;;;;;;5093466;28;19908;-68
2023/10/03 04:42:53;;;;;;;;;;;45.00;40.00;;;;;;5093687;28;19931;-69
2023/10/03 04:45:20;;;;;;;;;;;44.90;40.20;;;;;;5093599;28;19912;-68
2023/10/03 04:47:47;;;;;;;;;;;45.30;40.40;;;;;;5093472;28;20369;-68
2023/10/03 04:50:18;;;;;;;;;;;45.60;40.80;;;;;;5093229;28;19912;-68
2023/10/03 04:52:48;;;;;;;;;;;45.20;39.80;;;;;;5093409;28;19908;-70
2023/10/03 04:55:16;;;;;;;;;;;44.70;40.10;;;;;;5093568;28;19915;-68
2023/10/03 04:57:44;;;;;;;;;;;45.10;39.90;;;;;;5093452;28;19912;-69
2023/10/03 05:00:15;;;;;;;;;;;45.30;40.40;;;;;;5093211;28;19961;-70
2023/10/03 05:02:46;;;;;;;;;;;45.70;39.50;;;;;;5093032;28;19948;-69
2023/10/03 05:05:18;;;;;;;;;;;45.60;39.90;;;;;;5093204;28;20310;-70
2023/10/03 05:07:45;;;;;;;;;;;45.40;39.80;;;;;;5093227;28;19908;-68
2023/10/03 05:10:12;;;;;;;;;;;45.50;39.30;;;;;;5093236;28;19991;-70
2023/10/03 05:12:39;;;;;;;;;;;45.30;39.50;;;;;;5093132;28;19922;-67
2023/10/03 05:15:08;;;;;;;;;;;45.50;39.30;;;;;;5093261;28;19908;-69
2023/10/03 05:17:35;;;;;;;;;;;45.30;39.10;;;;;;5093234;28;19909;-70
2023/10/03 05:20:05;;;;;;;;;;;45.50;39.50;;;;;;5093015;28;19912;-70
2023/10/03 05:22:34;;;;;;;;;;;45.30;38.90;;;;;;5093075;28;19961;-68
2023/10/03 05:25:01;;;;;;;;;;;44.80;39.50;;;;;;5092899;28;19999;-71
2023/10/03 05:27:32;;;;;;;;;;;44.30;39.40;;;;;;5093028;28;19923;-70
2023/10/03 05:30:05;;;;;;;;;;;44.50;39.40;;;;;;5092140;28;19908;-69
2023/10/03 05:32:32;;;;;;;;;;;44.50;39.60;;;;;;5092982;28;19908;-71
2023/10/03 05:34:58;;;;;;;;;;;44.20;39.80;;;;;;5092898;28;20277;-71
2023/10/03 05:37:25;;;;;;;;;;;43.30;39.40;;;;;;5092739;28;19915;-71
2023/10/03 05:39:52;;;;;;;;;;;42.90;40.50;;;;;;5092696;28;19927;-71
2023/10/03 05:42:18;;;;;;;;;;;42.70;43.70;;;;;;5092755;28;20039;-71
2023/10/03 05:44:45;;;;;;;;;;;42.30;46.90;;;;;;5092876;28;19912;-71
2023/10/03 05:47:12;;;;;;;;;;;41.30;48.40;;;;;;5092766;28;20014;-70
2023/10/03 05:49:39;;;;;;;;;;;40.70;49.50;;;;;;5092700;28;19920;-70
2023/10/03 05:52:08;;;;;;;;;;;40.10;49.80;;;;;;5092802;28;19916;-69
2023/10/03 05:54:35;;;;;;;;;;;39.60;49.90;;;;;;5092557;28;19954;-70
2023/10/03 05:57:02;;;;;;;;;;;38.70;51.00;;;;;;5092801;28;20345;-69
2023/10/03 05:59:28;;;;;;;;;;;38.10;50.40;;;;;;5092686;28;20262;-68
2023/10/03 06:01:57;;;;;;;;;;;37.50;50.60;;;;;;5092664;28;19931;-69
2023/10/03 06:04:24;;;;;;;;;;;37.00;51.50;;;;;;5092320;28;19908;-71
2023/10/03 06:06:51;;;;;;;;;;;36.20;52.00;;;;;;5092420;28;20392;-70
2023/10/03 06:09:17;;;;;;;;;;;35.40;52.90;;;;;;5092466;28;19908;-70
2023/10/03 06:11:44;;;;;;;;;;;34.60;54.20;;;;;;5092518;28;19916;-72
2023/10/03 06:14:12;;;;;;;;;;;33.90;55.00;;;;;;5092588;28;19931;-70
2023/10/03 06:16:38;;;;;;;;;;;33.50;55.40;;;;;;5092705;28;19915;-69
2023/10/03 06:19:07;;;;;;;;;;;33.10;56.30;;;;;;5092321;28;19908;-67
2023/10/03 06:21:34;;;;;;;;;;;32.80;56.90;;;;;;5092457;28;19924;-69
2023/10/03 06:24:01;;;;;;;;;;;32.20;58.20;;;;;;5092432;28;19909;-66
2023/10/03 06:26:27;;;;;;;;;;;31.90;58.50;;;;;;5092250;28;20373;-71
2023/10/03 06:28:54;;;;;;;;;;;31.60;59.00;;;;;;5092190;28;19966;-68
2023/10/03 06:31:21;;;;;;;;;;;31.30;59.30;;;;;;5092122;28;20027;-68
2023/10/03 06:33:49;;;;;;;;;;;31.10;60.00;;;;;;5091016;28;19908;-69
2023/10/03 06:36:16;;;;;;;;;;;30.90;60.50;;;;;;5092229;28;19908;-69
2023/10/03 06:38:43;;;;;;;;;;;30.70;60.80;;;;;;5092164;28;19908;-69
2023/10/03 06:41:10;;;;;;;;;;;30.60;61.10;;;;;;5092208;28;19912;-71
2023/10/03 06:43:37;;;;;;;;;;;30.60;61.60;;;;;;5095426;28;19908;-68
2023/10/03 06:46:05;;;;;;;;;;;30.60;61.20;;;;;;5095813;28;19920;-70
2023/10/03 06:48:32;;;;;;;;;;;30.60;61.40;;;;;;5095532;28;19930;-71
2023/10/03 06:51:04;;;;;;;;;;;30.50;61.40;;;;;;5095434;28;19916;-70
2023/10/03 06:53:31;;;;;;;;;;;30.50;61.50;;;;;;5095601;28;19908;-71
2023/10/03 06:55:58;;;;;;;;;;;30.50;61.40;;;;;;5095366;28;19908;-70
2023/10/03 06:58:25;;;;;;;;;;;30.50;61.10;;;;;;5095539;28;19974;-70
2023/10/03 07:00:55;;;;;;;;;;;30.40;61.10;;;;;;5095383;28;20357;-68
2023/10/03 07:03:23;;;;;;;;;;;30.40;61.40;;;;;;5095433;28;19915;-72
2023/10/03 07:05:50;;;;;;;;;;;30.30;61.60;;;;;;5095202;28;19916;-69
2023/10/03 07:08:16;;;;;;;;;;;30.20;61.90;;;;;;5095138;28;19959;-71
2023/10/03 07:10:44;;;;;;;;;;;30.10;62.20;;;;;;5095358;28;20443;-71
2023/10/03 07:13:12;;;;;;;;;;;30.00;62.30;;;;;;5095231;28;19908;-71
2023/10/03 07:15:39;;;;;;;;;;;29.90;62.70;;;;;;5095052;28;19908;-70
2023/10/03 07:18:06;;;;;;;;;;;29.90;62.70;;;;;;5095370;28;20408;-69
2023/10/03 07:20:34;;;;;;;;;;;29.80;62.80;;;;;;5095173;28;19913;-70
2023/10/03 07:23:02;;;;;;;;;;;29.70;63.00;;;;;;5095097;28;20428;-69
2023/10/03 07:25:32;;;;;;;;;;;29.60;63.30;;;;;;5095098;28;19908;-71
2023/10/03 07:27:59;;;;;;;;;;;29.40;63.80;;;;;;5094868;28;19908;-70
2023/10/03 07:30:26;;;;;;;;;;;29.40;64.40;;;;;;5094712;28;19917;-66
2023/10/03 07:32:53;;;;;;;;;;;29.30;64.50;;;;;;5094696;28;19954;-69
2023/10/03 07:35:21;;;;;;;;;;;29.20;64.80;;;;;;5094700;28;19908;-69
2023/10/03 07:37:51;;;;;;;;;;;29.10;65.20;;;;;;5094709;28;19908;-70
2023/10/03 07:40:21;;;;;;;;;;;29.00;65.50;;;;;;5094643;28;19908;-70
2023/10/03 07:42:49;;;;;;;;;;;29.00;65.90;;;;;;5094742;28;20280;-70
2023/10/03 07:45:17;;;;;;;;;;;28.90;66.20;;;;;;5094593;28;19951;-68
2023/10/03 07:47:44;;;;;;;;;;;28.80;66.40;;;;;;5094616;28;19954;-70
2023/10/03 07:50:13;;;;;;;;;;;28.70;66.90;;;;;;5094344;28;20360;-69
2023/10/03 07:52:41;;;;;;;;;;;28.60;67.30;;;;;;5094348;28;19930;-69
2023/10/03 07:55:09;;;;;;;;;;;28.40;67.60;;;;;;5093869;28;19964;-70
2023/10/03 07:57:37;;;;;;;;;;;28.40;68.40;;;;;;5094522;28;20064;-70
2023/10/03 08:00:05;;;;;;;;;;;28.30;68.30;;;;;;5094356;28;19908;-70
2023/10/03 08:02:32;;;;;;;;;;;28.30;68.60;;;;;;5094340;28;19909;-72
2023/10/03 08:05:02;;;;;;;;;;;28.20;69.00;;;;;;5094335;28;19908;-70
2023/10/03 08:07:29;;;;;;;;;;;28.10;69.60;;;;;;5094344;28;20006;-68
2023/10/03 08:09:55;;;;;;;;;;;28.10;69.90;;;;;;5094287;28;20329;-70
2023/10/03 08:12:25;;;;;;;;;;;28.00;70.30;;;;;;5093970;28;20418;-69
2023/10/03 08:14:52;;;;;;;;;;;28.00;70.60;;;;;;5093902;28;19919;-69
2023/10/03 08:17:20;;;;;;;;;;;27.80;70.70;;;;;;5094193;28;19908;-72
2023/10/03 08:19:50;;;;;;;;;;;27.80;70.90;;;;;;5094000;28;20363;-67
2023/10/03 08:22:16;;;;;;;;;;;27.70;71.40;;;;;;5094174;28;19909;-70
2023/10/03 08:24:43;;;;;;;;;;;27.70;71.70;;;;;;5093900;28;19908;-71
2023/10/03 08:27:18;;;;;;;;;;;27.60;71.80;;;;;;5093943;28;19982;-72
2023/10/03 08:29:51;;;;;;;;;;;27.60;72.40;;;;;;5093719;28;20349;-69
2023/10/03 08:32:18;;;;;;;;;;;27.50;72.30;;;;;;5093852;28;19916;-70
2023/10/03 08:34:45;;;;;;;;;;;27.40;72.60;;;;;;5093753;28;19916;-69
2023/10/03 08:37:21;;;;;;;;;;;27.30;72.60;;;;;;5093620;28;19952;-71
2023/10/03 08:39:53;;;;;;;;;;;27.30;73.20;;;;;;5093522;28;19999;-70
2023/10/03 08:42:35;;;;;;;;;;;27.20;73.20;;;;;;5093638;28;19912;-69
2023/10/03 08:45:27;;;;;;;;;;;27.10;73.40;;;;;;5093464;28;20003;-69
2023/10/03 08:47:54;;;;;;;;;;;27.10;73.80;;;;;;5093335;28;20396;-69
2023/10/03 08:50:33;;;;;;;;;;;27.00;74.10;;;;;;5093418;28;19923;-69
2023/10/03 08:53:12;;;;;;;;;;;27.00;74.50;;;;;;5093422;28;20440;-70
2023/10/03 08:55:46;;;;;;;;;;;26.90;74.60;;;;;;5092669;28;20456;-71
2023/10/03 08:58:14;;;;;;;;;;;27.00;75.10;;;;;;5093260;28;19969;-70
2023/10/03 09:00:44;;;;;;;;;;;26.90;75.10;;;;;;5093363;28;19954;-67
2023/10/03 09:03:15;;;;;;;;;;;26.90;75.50;;;;;;5093388;28;20341;-72
2023/10/03 09:05:42;;;;;;;;;;;26.90;75.70;;;;;;5093115;28;20350;-69
2023/10/03 09:08:16;;;;;;;;;;;26.90;75.90;;;;;;5093245;28;19912;-68
2023/10/03 09:10:53;;;;;;;;;;;26.80;76.20;;;;;;5092857;28;19912;-71
2023/10/03 09:13:24;;;;;;;;;;;26.80;76.70;;;;;;5093164;28;19908;-69
2023/10/03 09:15:59;;;;;;;;;;;26.70;76.90;;;;;;5093278;28;20431;-72
2023/10/03 09:18:29;;;;;;;;;;;26.70;77.10;;;;;;5093154;28;19908;-71
2023/10/03 09:20:59;;;;;;;;;;;26.70;77.40;;;;;;5092900;28;19961;-70
2023/10/03 09:23:37;;;;;;;;;;;26.60;77.50;;;;;;5093122;28;19944;-71
2023/10/03 09:26:06;;;;;;;;;;;26.50;77.70;;;;;;5092881;28;19915;-70
2023/10/03 09:28:36;;;;;;;;;;;26.60;77.80;;;;;;5093119;28;19916;-71
2023/10/03 09:31:08;;;;;;;;;;;26.50;77.70;;;;;;5092813;28;20292;-72
2023/10/03 09:33:38;;;;;;;;;;;26.50;78.10;;;;;;5093034;28;19934;-72
2023/10/03 09:36:06;;;;;;;;;;;26.40;77.90;;;;;;5092724;28;19961;-71
2023/10/03 09:38:45;;;;;;;;;;;26.40;78.00;;;;;;5092911;28;19922;-70
2023/10/03 09:41:21;;;;;;;;;;;26.40;78.10;;;;;;5092858;28;19908;-68
2023/10/03 09:43:54;;;;;;;;;;;26.40;77.90;;;;;;5092970;28;20356;-70
2023/10/03 09:46:38;;;;;;;;;;;26.40;78.00;;;;;;5092877;28;19916;-70
2023/10/03 09:49:08;;;;;;;;;;;26.40;77.70;;;;;;5091512;28;19922;-72
2023/10/03 09:51:47;;;;;;;;;;;26.40;77.60;;;;;;5092549;28;20406;-73
2023/10/03 09:54:30;;;;;;;;;;;26.50;77.60;;;;;;5092571;28;19920;-72
2023/10/03 09:56:57;;;;;;;;;;;26.40;77.90;;;;;;5092743;28;19908;-73
2023/10/03 09:59:24;;;;;;;;;;;26.40;78.20;;;;;;5092597;28;19908;-72
2023/10/03 10:01:55;;;;;;;;;;;26.40;78.40;;;;;;5092518;28;19966;-71
2023/10/03 10:04:22;;;;;;;;;;;26.40;78.60;;;;;;5092462;28;19916;-71
2023/10/03 10:06:57;;;;;;;;;;;26.30;79.00;;;;;;5092453;28;19915;-71
2023/10/03 10:09:32;;;;;;;;;;;26.40;79.20;;;;;;5092611;28;19915;-71
2023/10/03 10:12:19;;;;;;;;;;;26.30;79.70;;;;;;5092388;28;20448;-72
2023/10/03 10:15:21;;;;;;;;;;;26.20;80.10;;;;;;5092413;28;19931;-70
2023/10/03 10:17:51;;;;;;;;;;;26.20;80.60;;;;;;5094805;28;19908;-71
2023/10/03 10:20:27;;;;;;;;;;;26.10;81.00;;;;;;5096343;28;19919;-71
2023/10/03 10:23:04;;;;;;;;;;;26.00;81.50;;;;;;5096417;28;19915;-71
2023/10/03 10:25:43;;;;;;;;;;;26.00;81.70;;;;;;5096315;28;19908;-72
2023/10/03 10:28:10;;;;;;;;;;;26.00;81.70;;;;;;5096427;28;19912;-72
2023/10/03 10:30:44;;;;;;;;;;;26.00;82.00;;;;;;5095961;28;19965;-71
2023/10/03 10:33:23;;;;;;;;;;;26.00;82.20;;;;;;5096128;28;19912;-68
2023/10/03 10:35:52;;;;;;;;;;;25.90;82.40;;;;;;5096033;28;19912;-68
2023/10/03 10:38:19;;;;;;;;;;;25.90;82.70;;;;;;5095870;28;19987;-69
2023/10/03 10:41:04;;;;;;;;;;;25.80;83.00;;;;;;5095756;28;20318;-71
2023/10/03 10:43:33;;;;;;;;;;;25.80;83.40;;;;;;5094539;28;20391;-72
2023/10/03 10:46:27;;;;;;;;;;;25.70;83.80;;;;;;5095902;28;19962;-69
2023/10/03 10:48:53;;;;;;;;;;;25.60;84.10;;;;;;5087155;28;19920;-71
2023/10/03 10:51:20;;;;;;;;;;;25.60;84.70;;;;;;5095517;28;19940;-71
2023/10/03 10:53:48;;;;;;;;;;;25.60;85.10;;;;;;5095438;28;20312;-68
2023/10/03 10:56:14;;;;;;;;;;;25.50;85.30;;;;;;5095646;28;19915;-70
2023/10/03 10:58:52;;;;;;;;;;;25.50;85.80;;;;;;5095510;28;19916;-70
2023/10/03 11:01:22;;;;;;;;;;;25.40;85.90;;;;;;5094129;28;19908;-72
2023/10/03 11:03:48;;;;;;;;;;;25.40;86.50;;;;;;5095539;28;19987;-70
2023/10/03 11:06:16;;;;;;;;;;;25.40;86.50;;;;;;5095462;28;19915;-73
2023/10/03 11:08:52;;;;;;;;;;;25.40;86.90;;;;;;5095362;28;19909;-70
2023/10/03 11:11:19;;;;;;;;;;;25.40;87.30;;;;;;5095015;28;19925;-71
2023/10/03 11:13:53;;;;;;;;;;;25.30;87.20;;;;;;5094925;28;19961;-73
2023/10/03 11:16:21;;;;;;;;;;;25.30;87.30;;;;;;5095099;28;20281;-71
2023/10/03 11:18:49;;;;;;;;;;;25.30;87.50;;;;;;5095230;28;19915;-70
2023/10/03 11:21:17;;;;;;;;;;;25.30;87.60;;;;;;5095386;28;19908;-69
2023/10/03 11:24:03;;;;;;;;;;;25.30;87.60;;;;;;5094928;28;20269;-70
2023/10/03 11:26:50;;;;;;;;;;;25.30;88.00;;;;;;5095038;28;19909;-70
2023/10/03 11:29:34;;;;;;;;;;;25.20;87.70;;;;;;5093443;28;19908;-70
2023/10/03 11:32:01;;;;;;;;;;;25.20;87.90;;;;;;5094888;28;19923;-70
2023/10/03 11:34:33;;;;;;;;;;;25.20;88.00;;;;;;5094769;28;20015;-69
2023/10/03 11:37:04;;;;;;;;;;;25.20;87.80;;;;;;5094898;28;20322;-72
2023/10/03 11:39:38;;;;;;;;;;;25.20;87.40;;;;;;5094828;28;19931;-69
2023/10/03 11:42:23;;;;;;;;;;;25.20;88.00;;;;;;5094590;28;20314;-67
2023/10/03 11:45:00;;;;;;;;;;;25.20;87.40;;;;;;5094560;28;20345;-71
2023/10/03 11:47:27;;;;;;;;;;;25.20;87.50;;;;;;5094758;28;20357;-70
2023/10/03 11:49:56;;;;;;;;;;;25.20;87.70;;;;;;5094298;28;19927;-71
2023/10/03 11:52:23;;;;;;;;;;;25.20;88.10;;;;;;5094499;28;20368;-70
2023/10/03 11:54:50;;;;;;;;;;;25.20;88.00;;;;;;5094509;28;19909;-71
2023/10/03 11:57:16;;;;;;;;;;;25.20;87.80;;;;;;5094365;28;19915;-69
2023/10/03 11:59:43;;;;;;;;;;;25.20;88.00;;;;;;5094232;28;20280;-71
2023/10/03 12:02:11;;;;;;;;;;;25.10;88.10;;;;;;5094326;28;20003;-72
2023/10/03 12:04:38;;;;;;;;;;;25.10;88.10;;;;;;5094377;28;19908;-70
2023/10/03 12:07:05;;;;;;;;;;;25.10;88.20;;;;;;5094240;28;19909;-73
2023/10/03 12:09:31;;;;;;;;;;;25.10;88.30;;;;;;5094411;28;19915;-72
2023/10/03 12:11:58;;;;;;;;;;;25.10;88.30;;;;;;5094114;28;19916;-70
2023/10/03 12:14:25;;;;;;;;;;;25.10;88.30;;;;;;5094214;28;20360;-73
2023/10/03 12:16:54;;;;;;;;;;;25.00;88.50;;;;;;5094102;28;20340;-72
2023/10/03 12:19:21;;;;;;;;;;;24.90;88.70;;;;;;5093975;28;19959;-69
2023/10/03 12:21:48;;;;;;;;;;;24.90;88.50;;;;;;5093950;28;19922;-73
2023/10/03 12:24:14;;;;;;;;;;;24.80;89.50;;;;;;5094179;28;19904;-73
2023/10/03 12:26:41;;;;;;;;;;;24.80;89.50;;;;;;5093829;28;19962;-73
2023/10/03 12:29:10;;;;;;;;;;;24.70;89.60;;;;;;5094068;28;19912;-69
2023/10/03 12:31:37;;;;;;;;;;;24.60;89.90;;;;;;5093787;28;19916;-69
2023/10/03 12:34:03;;;;;;;;;;;24.60;90.00;;;;;;5094019;28;20353;-69
2023/10/03 12:36:32;;;;;;;;;;;24.50;90.20;;;;;;5093691;28;20331;-70
2023/10/03 12:39:05;;;;;;;;;;;24.50;90.30;;;;;;5093581;28;19908;-71
2023/10/03 12:41:32;;;;;;;;;;;24.50;90.40;;;;;;5093592;28;20261;-70
2023/10/03 12:43:58;;;;;;;;;;;24.50;90.40;;;;;;5093473;28;20262;-69
2023/10/03 12:46:26;;;;;;;;;;;24.50;90.60;;;;;;5093561;28;19909;-69
2023/10/03 12:48:54;;;;;;;;;;;24.50;90.60;;;;;;5093366;28;19920;-71
2023/10/03 12:51:21;;;;;;;;;;;24.50;90.70;;;;;;5093267;28;19916;-68
2023/10/03 12:53:48;;;;;;;;;;;24.40;90.70;;;;;;5093440;28;19908;-71
2023/10/03 12:56:17;;;;;;;;;;;24.40;90.50;;;;;;5093417;28;19908;-70
2023/10/03 12:58:45;;;;;;;;;;;24.30;90.60;;;;;;5093144;28;19908;-72
2023/10/03 13:01:12;;;;;;;;;;;24.40;90.60;;;;;;5093295;28;19997;-71
2023/10/03 13:03:39;;;;;;;;;;;24.30;90.50;;;;;;5093404;28;19915;-72
2023/10/03 13:06:06;;;;;;;;;;;24.30;90.40;;;;;;5093400;28;19916;-71
2023/10/03 13:08:33;;;;;;;;;;;24.40;90.00;;;;;;5093151;28;19909;-72
2023/10/03 13:11:05;;;;;;;;;;;24.40;89.50;;;;;;5092901;28;19923;-70
2023/10/03 13:13:32;;;;;;;;;;;24.30;89.20;;;;;;5093185;28;19908;-67
2023/10/03 13:15:59;;;;;;;;;;;24.30;88.70;;;;;;5093037;28;20007;-73
2023/10/03 13:18:25;;;;;;;;;;;24.40;87.50;;;;;;5093085;28;19908;-72
2023/10/03 13:20:55;;;;;;;;;;;24.30;86.10;;;;;;5092691;28;20318;-72
2023/10/03 13:23:22;;;;;;;;;;;24.40;86.00;;;;;;5092972;28;19919;-71
2023/10/03 13:25:50;;;;;;;;;;;24.50;85.00;;;;;;5093550;28;20416;-73
2023/10/03 13:28:18;;;;;;;;;;;24.50;84.90;;;;;;5092953;28;20505;-71
2023/10/03 13:30:46;;;;;;;;;;;24.50;84.90;;;;;;5092639;28;19912;-71
2023/10/03 13:33:13;;;;;;;;;;;24.50;84.50;;;;;;5092807;28;19908;-72
2023/10/03 13:35:39;;;;;;;;;;;24.60;84.60;;;;;;5092801;28;19908;-70
2023/10/03 13:38:06;;;;;;;;;;;24.60;84.50;;;;;;5092816;28;19954;-70
2023/10/03 13:40:33;;;;;;;;;;;24.60;84.60;;;;;;5092897;28;20056;-68
2023/10/03 13:43:04;;;;;;;;;;;24.60;84.60;;;;;;5092689;28;19908;-72
2023/10/03 13:45:32;;;;;;;;;;;24.50;84.70;;;;;;5092816;28;19912;-72
2023/10/03 13:48:00;;;;;;;;;;;24.60;84.70;;;;;;5092681;28;19915;-70
2023/10/03 13:50:28;;;;;;;;;;;24.60;84.80;;;;;;5092654;28;20465;-73
2023/10/03 13:52:55;;;;;;;;;;;24.60;84.90;;;;;;5095628;28;19912;-73
2023/10/03 13:55:25;;;;;;;;;;;24.60;85.10;;;;;;5096887;28;19908;-70
2023/10/03 13:57:55;;;;;;;;;;;24.60;85.40;;;;;;5096872;28;20280;-73
2023/10/03 14:00:22;;;;;;;;;;;24.60;85.70;;;;;;5096650;28;19908;-70
2023/10/03 14:02:50;;;;;;;;;;;24.50;86.00;;;;;;5096874;28;19908;-70
2023/10/03 14:05:19;;;;;;;;;;;24.50;86.20;;;;;;5096738;28;19916;-70
2023/10/03 14:07:46;;;;;;;;;;;24.50;86.50;;;;;;5096489;28;19915;-71
2023/10/03 14:10:17;;;;;;;;;;;24.50;86.90;;;;;;5096715;28;19912;-69
2023/10/03 14:12:44;;;;;;;;;;;24.30;87.20;;;;;;5096493;28;19916;-73
2023/10/03 14:15:11;;;;;;;;;;;24.40;87.40;;;;;;5096674;28;19958;-70
2023/10/03 14:17:38;;;;;;;;;;;24.40;87.40;;;;;;5096607;28;20317;-70
2023/10/03 14:20:05;;;;;;;;;;;24.30;87.50;;;;;;5096497;28;20264;-70
2023/10/03 14:22:32;;;;;;;;;;;24.30;87.50;;;;;;5096329;28;20448;-71
2023/10/03 14:24:58;;;;;;;;;;;24.30;87.30;;;;;;5096181;28;19916;-71
2023/10/03 14:27:25;;;;;;;;;;;24.30;87.20;;;;;;5096132;28;19908;-72